HJFA4: James Fork nr Hackett 2S

                                SHEF ID:       HJFA4     James Fork nr Hackett 2S
STATION TYPE:

STAGE RIV-FLOW BAT-LOAD
ft cfs volt
Ccp-Rev Ccp-Rev Ccp-Rev
(America/Chicago)
04/25 00:00 14.65 2202 12.49
04/25 01:00 14.34 2123 12.47
04/25 02:00 14.30 2113 12.44
04/25 03:00 14.45 2151 12.39
04/25 04:00 14.54 2174 12.34
04/25 05:00 14.44 2149 12.34
04/25 06:00 14.07 2055 12.32
04/25 07:00 13.56 1928 12.32
04/25 08:00 12.93 1774 12.44
04/25 09:00 12.26 1605 12.96
04/25 10:00 11.59 1441 13.23
04/25 11:00 10.96 1293 13.19
04/25 12:00 10.40 1166 13.53
04/25 13:00 9.90 1056 13.31
04/25 14:00 9.45 960 13.16
04/25 15:00 9.07 882 13.09
04/25 16:00 8.75 818 12.96
04/25 17:00 8.44 757 12.90
04/25 18:00 8.19 710 12.69
04/25 19:00 7.99 669 12.64
04/25 20:00 7.83 637 12.61
04/25 21:00 7.75 621 12.60
04/25 22:00 7.71 613 12.57
04/25 23:00 8.13 698 12.54
Data processed at Sun 26Apr2026 04:35 GMT

NOTICE: If you are parsing this page

Please convert to using our Data API. Starting early 2026 we will be migrating to: https://water.usace.army.mil with modern pages rendered in JavaScript. When this migration completes you will no longer be able to scrape this page! CWMSDataAPI (CDA)

Timeseries IDs (TSIDs)

TSIDs used from left to right in the data table
HACK.Stage.Inst.1Hour.0.Ccp-Rev
HACK.Flow.Inst.1Hour.0.Ccp-Rev
HACK.Volt-Battery Load.Inst.1Hour.0.Ccp-Rev

                            

All information presented herein is the property of the government of the United States of America and may be revised or deleted at any time without prior notice. Dissemination of this information without the expressed written consent of the Public Affairs Office, Tulsa District U.S. Army Corps of Engineers is strictly prohibited. These data are gathered electronically and, as presented, have NOT undergone any form of quality control. These data are NOT guaranteed to be valid or correct.